Time,TemperatureF,DewpointF,PressureIn,WindDirection,WindDirectionDegrees,WindSpeedMPH,WindSpeedGustMPH,Humidity,HourlyPrecipIn,Conditions,Clouds,dailyrainin,SoftwareType,DateUTC
2013-05-10 00:00:00,67.8,62.5,30.04,ESE,104,0.0,0.0,83,0.00,,---,0.00,VWS V14.01,2013-05-10 04:00:00,
2013-05-10 00:01:00,63.1,61.7,30.04,ESE,103,0.0,0.0,95,0.00,,---,0.00,VWS V14.01,2013-05-10 04:01:00,
2013-05-10 00:06:00,63.2,61.8,30.04,ESE,103,0.0,0.0,95,0.00,,---,0.00,VWS V14.01,2013-05-10 04:06:00,
2013-05-10 00:11:00,63.2,61.8,30.04,ESE,103,0.0,0.0,95,0.00,,---,0.00,VWS V14.01,2013-05-10 04:11:00,
2013-05-10 00:16:00,62.4,61.2,30.04,ESE,105,0.0,0.0,96,0.00,,---,0.00,VWS V14.01,2013-05-10 04:16:00,
2013-05-10 00:21:00,62.7,62.4,30.04,ESE,117,0.0,0.0,99,0.00,,---,0.00,VWS V14.01,2013-05-10 04:21:00,
2013-05-10 00:26:00,63.5,63.2,30.04,ESE,117,0.0,0.0,99,0.00,,---,0.00,VWS V14.01,2013-05-10 04:26:00,
2013-05-10 00:30:00,65.3,62.0,30.04,ESE,104,0.0,0.0,89,0.00,,---,0.00,VWS V14.01,2013-05-10 04:30:00,
2013-05-10 00:31:00,64.7,63.5,30.04,ESE,117,0.0,0.0,96,0.00,,---,0.00,VWS V14.01,2013-05-10 04:31:00,
2013-05-10 00:36:00,65.0,63.5,30.04,ESE,117,0.0,0.0,95,0.00,,---,0.00,VWS V14.01,2013-05-10 04:36:00,
2013-05-10 00:41:00,65.5,63.4,30.04,ESE,117,0.0,0.0,93,0.00,,---,0.00,VWS V14.01,2013-05-10 04:41:00,
2013-05-10 00:46:00,65.6,63.2,30.04,ESE,117,0.0,0.0,92,0.00,,---,0.00,VWS V14.01,2013-05-10 04:46:00,
2013-05-10 00:51:00,65.3,62.6,30.04,ESE,117,0.0,0.0,91,0.00,,---,0.00,VWS V14.01,2013-05-10 04:51:00,
2013-05-10 00:56:00,64.8,62.4,30.04,ESE,117,0.0,0.0,92,0.00,,---,0.00,VWS V14.01,2013-05-10 04:56:00,
2013-05-10 01:00:00,63.1,61.7,30.04,ESE,103,0.0,0.0,95,0.00,,---,0.00,VWS V14.01,2013-05-10 05:00:00,
2013-05-10 01:01:00,64.3,62.2,30.04,ESE,117,0.0,0.0,93,0.00,,---,0.00,VWS V14.01,2013-05-10 05:01:00,
2013-05-10 01:06:00,64.0,61.9,30.04,ESE,117,0.0,0.0,93,0.00,,---,0.00,VWS V14.01,2013-05-10 05:06:00,
2013-05-10 01:11:00,63.4,61.7,30.04,ESE,117,0.0,0.0,94,0.00,,---,0.00,VWS V14.01,2013-05-10 05:11:00,
2013-05-10 01:16:00,63.1,61.9,30.04,ESE,117,0.0,0.0,96,0.00,,---,0.00,VWS V14.01,2013-05-10 05:16:00,
2013-05-10 01:21:00,62.9,61.8,30.04,ESE,117,0.0,0.0,96,0.00,,---,0.00,VWS V14.01,2013-05-10 05:21:00,
2013-05-10 01:26:00,63.2,62.3,30.04,ESE,117,0.0,0.0,97,0.00,,---,0.00,VWS V14.01,2013-05-10 05:26:00,
2013-05-10 01:30:00,64.8,63.3,30.04,ESE,117,0.0,0.0,95,0.00,,---,0.00,VWS V14.01,2013-05-10 05:30:00,
2013-05-10 01:31:00,63.2,62.0,30.04,ESE,117,0.0,0.0,96,0.00,,---,0.00,VWS V14.01,2013-05-10 05:31:00,
2013-05-10 01:36:00,63.2,62.0,30.04,ESE,117,0.0,0.0,96,0.00,,---,0.00,VWS V14.01,2013-05-10 05:36:00,
2013-05-10 01:41:00,62.9,61.8,30.04,ESE,117,0.0,0.0,96,0.00,,---,0.00,VWS V14.01,2013-05-10 05:41:00,
2013-05-10 01:46:00,62.7,61.5,30.04,ESE,117,0.0,0.0,96,0.00,,---,0.00,VWS V14.01,2013-05-10 05:46:00,
2013-05-10 01:51:00,62.3,61.2,30.03,ESE,117,0.0,0.0,96,0.00,,---,0.00,VWS V14.01,2013-05-10 05:51:00,
2013-05-10 01:56:00,62.0,61.1,30.03,ESE,117,0.0,0.0,97,0.00,,---,0.00,VWS V14.01,2013-05-10 05:56:00,
2013-05-10 02:00:00,64.2,62.1,30.04,ESE,117,0.0,0.0,93,0.00,,---,0.00,VWS V14.01,2013-05-10 06:00:00,
2013-05-10 02:01:00,62.0,61.4,30.03,ESE,117,0.0,0.0,98,0.00,,---,0.00,VWS V14.01,2013-05-10 06:01:00,
2013-05-10 02:06:00,62.0,61.4,30.02,ESE,117,0.0,0.0,98,0.00,,---,0.00,VWS V14.01,2013-05-10 06:06:00,
2013-05-10 02:11:00,62.0,61.7,30.02,ESE,117,0.0,0.0,99,0.00,,---,0.00,VWS V14.01,2013-05-10 06:11:00,
2013-05-10 02:16:00,62.0,61.7,30.02,ESE,117,0.0,0.0,99,0.00,,---,0.00,VWS V14.01,2013-05-10 06:16:00,
2013-05-10 02:21:00,61.8,61.5,30.01,ESE,117,0.0,0.0,99,0.00,,---,0.00,VWS V14.01,2013-05-10 06:21:00,
2013-05-10 02:26:00,61.8,61.5,30.01,ESE,117,0.0,0.0,99,0.00,,---,0.00,VWS V14.01,2013-05-10 06:26:00,
2013-05-10 02:30:00,63.2,62.0,30.04,ESE,117,0.0,0.0,96,0.00,,---,0.00,VWS V14.01,2013-05-10 06:30:00,
2013-05-10 02:31:00,61.2,60.9,30.01,ESE,117,0.0,0.0,99,0.00,,---,0.00,VWS V14.01,2013-05-10 06:31:00,
2013-05-10 02:36:00,61.0,61.0,30.00,ESE,117,0.0,0.0,100,0.00,,---,0.00,VWS V14.01,2013-05-10 06:36:00,
2013-05-10 02:41:00,60.9,60.9,30.00,ESE,117,0.0,0.0,100,0.00,,---,0.00,VWS V14.01,2013-05-10 06:41:00,
2013-05-10 02:46:00,60.7,60.7,30.00,ESE,117,0.0,0.0,100,0.00,,---,0.00,VWS V14.01,2013-05-10 06:46:00,
2013-05-10 02:51:00,60.7,60.7,30.00,ESE,117,0.0,0.0,100,0.00,,---,0.00,VWS V14.01,2013-05-10 06:51:00,
2013-05-10 02:56:00,61.0,61.0,30.00,ESE,117,0.0,0.0,100,0.00,,---,0.00,VWS V14.01,2013-05-10 06:56:00,
2013-05-10 03:00:00,62.0,61.4,30.02,ESE,117,0.0,0.0,98,0.00,,---,0.00,VWS V14.01,2013-05-10 07:00:00,
2013-05-10 03:01:00,60.7,60.7,30.00,ESE,117,0.0,0.0,100,0.00,,---,0.00,VWS V14.01,2013-05-10 07:01:00,
2013-05-10 03:06:00,60.4,60.4,30.00,ESE,117,0.0,0.0,100,0.00,,---,0.00,VWS V14.01,2013-05-10 07:06:00,
2013-05-10 03:11:00,60.1,60.1,30.00,ESE,117,0.0,0.0,100,0.00,,---,0.00,VWS V14.01,2013-05-10 07:11:00,
2013-05-10 03:16:00,59.6,59.6,30.00,ESE,117,0.0,0.0,100,0.00,,---,0.00,VWS V14.01,2013-05-10 07:16:00,
2013-05-10 03:21:00,59.2,59.2,30.00,ESE,117,0.0,0.0,100,0.00,,---,0.00,VWS V14.01,2013-05-10 07:21:00,
2013-05-10 03:26:00,59.2,59.2,30.00,ESE,117,0.0,0.0,100,0.00,,---,0.00,VWS V14.01,2013-05-10 07:26:00,
2013-05-10 03:30:00,61.2,60.9,30.00,ESE,117,0.0,0.0,99,0.00,,---,0.00,VWS V14.01,2013-05-10 07:30:00,
2013-05-10 03:31:00,58.9,58.9,30.00,ESE,117,0.0,0.0,100,0.00,,---,0.00,VWS V14.01,2013-05-10 07:31:00,
2013-05-10 03:36:00,58.7,58.7,30.00,ESE,117,0.0,0.0,100,0.00,,---,0.00,VWS V14.01,2013-05-10 07:36:00,
2013-05-10 03:41:00,58.7,58.7,30.00,ESE,117,0.0,0.0,100,0.00,,---,0.00,VWS V14.01,2013-05-10 07:41:00,
2013-05-10 03:46:00,58.7,58.7,30.00,ESE,117,0.0,0.0,100,0.00,,---,0.00,VWS V14.01,2013-05-10 07:46:00,
2013-05-10 03:51:00,58.9,58.9,30.00,ESE,117,0.0,0.0,100,0.00,,---,0.00,VWS V14.01,2013-05-10 07:51:00,
2013-05-10 03:56:00,58.9,58.9,30.00,ESE,117,0.0,0.0,100,0.00,,---,0.00,VWS V14.01,2013-05-10 07:56:00,
2013-05-10 04:00:00,60.5,60.5,30.00,ESE,117,0.0,0.0,100,0.00,,---,0.00,VWS V14.01,2013-05-10 08:00:00,
2013-05-10 04:01:00,58.9,58.9,30.00,ESE,117,0.0,0.0,100,0.00,,---,0.00,VWS V14.01,2013-05-10 08:01:00,
2013-05-10 04:06:00,58.7,58.7,30.00,ESE,117,0.0,0.0,100,0.00,,---,0.00,VWS V14.01,2013-05-10 08:06:00,
2013-05-10 04:11:00,58.6,58.6,30.00,ESE,117,0.0,0.0,100,0.00,,---,0.00,VWS V14.01,2013-05-10 08:11:00,
2013-05-10 04:16:00,58.6,58.6,30.00,ESE,117,0.0,0.0,100,0.00,,---,0.00,VWS V14.01,2013-05-10 08:16:00,
2013-05-10 04:21:00,58.7,58.7,30.00,ESE,117,0.0,0.0,100,0.00,,---,0.00,VWS V14.01,2013-05-10 08:21:00,
2013-05-10 04:26:00,58.6,58.6,30.00,ESE,117,0.0,0.0,100,0.00,,---,0.00,VWS V14.01,2013-05-10 08:26:00,
2013-05-10 04:30:00,58.9,58.9,30.00,ESE,117,0.0,0.0,100,0.00,,---,0.00,VWS V14.01,2013-05-10 08:30:00,
2013-05-10 04:31:00,58.6,58.6,30.00,ESE,117,0.0,0.0,100,0.00,,---,0.00,VWS V14.01,2013-05-10 08:31:00,
2013-05-10 04:36:00,59.0,59.0,29.99,ESE,117,0.0,0.0,100,0.00,,---,0.00,VWS V14.01,2013-05-10 08:36:00,
2013-05-10 04:41:00,59.0,59.0,29.99,ESE,117,0.0,0.0,100,0.00,,---,0.00,VWS V14.01,2013-05-10 08:41:00,
2013-05-10 04:46:00,58.7,58.7,29.99,ESE,117,0.0,0.0,100,0.00,,---,0.00,VWS V14.01,2013-05-10 08:46:00,
2013-05-10 04:51:00,58.6,58.6,29.98,ESE,117,0.0,0.0,100,0.00,,---,0.00,VWS V14.01,2013-05-10 08:51:00,
2013-05-10 04:56:00,58.3,58.3,29.98,ESE,117,0.0,0.0,100,0.00,,---,0.00,VWS V14.01,2013-05-10 08:56:00,
2013-05-10 05:00:00,58.7,58.7,30.00,ESE,117,0.0,0.0,100,0.00,,---,0.00,VWS V14.01,2013-05-10 09:00:00,
2013-05-10 05:01:00,58.3,58.3,29.98,ESE,117,0.0,0.0,100,0.00,,---,0.00,VWS V14.01,2013-05-10 09:01:00,
2013-05-10 05:06:00,58.4,58.4,29.98,ESE,117,0.0,0.0,100,0.00,,---,0.00,VWS V14.01,2013-05-10 09:06:00,
2013-05-10 05:11:00,58.3,58.3,29.98,ESE,117,0.0,0.0,100,0.00,,---,0.00,VWS V14.01,2013-05-10 09:11:00,
2013-05-10 05:16:00,58.3,58.3,29.98,ESE,117,0.0,0.0,100,0.00,,---,0.00,VWS V14.01,2013-05-10 09:16:00,
2013-05-10 05:21:00,58.3,58.3,29.98,ESE,117,0.0,0.0,100,0.00,,---,0.00,VWS V14.01,2013-05-10 09:21:00,
2013-05-10 05:26:00,58.3,58.3,29.98,ESE,117,0.0,0.0,100,0.00,,---,0.00,VWS V14.01,2013-05-10 09:26:00,
2013-05-10 05:30:00,58.6,58.6,29.99,ESE,117,0.0,0.0,100,0.00,,---,0.00,VWS V14.01,2013-05-10 09:30:00,
2013-05-10 05:31:00,58.1,58.1,29.98,ESE,117,0.0,0.0,100,0.00,,---,0.00,VWS V14.01,2013-05-10 09:31:00,
2013-05-10 05:36:00,58.0,58.0,29.99,ESE,117,0.0,0.0,100,0.00,,---,0.00,VWS V14.01,2013-05-10 09:36:00,
2013-05-10 05:41:00,58.0,58.0,29.99,ESE,117,0.0,0.0,100,0.00,,---,0.00,VWS V14.01,2013-05-10 09:41:00,
2013-05-10 05:45:00,58.0,58.0,29.99,ESE,117,0.0,0.0,100,0.00,,---,0.00,VWS V14.01,2013-05-10 09:45:00,
2013-05-10 05:50:00,57.8,57.8,29.98,ESE,117,0.0,0.0,100,0.00,,---,0.00,VWS V14.01,2013-05-10 09:50:00,
2013-05-10 05:55:00,57.6,57.6,29.98,ESE,117,0.0,0.0,100,0.00,,---,0.00,VWS V14.01,2013-05-10 09:55:00,
2013-05-10 06:00:00,57.5,57.5,29.98,ESE,117,0.0,0.0,100,0.00,,---,0.00,VWS V14.01,2013-05-10 10:00:00,
2013-05-10 06:05:00,57.5,57.5,29.99,ESE,117,0.0,0.0,100,0.00,,---,0.00,VWS V14.01,2013-05-10 10:05:00,
2013-05-10 06:10:00,57.6,57.6,29.99,ESE,117,0.0,0.0,100,0.00,,---,0.00,VWS V14.01,2013-05-10 10:10:00,
2013-05-10 06:15:00,57.2,57.2,29.99,ESE,117,0.0,0.0,100,0.00,,---,0.00,VWS V14.01,2013-05-10 10:15:00,
2013-05-10 06:20:00,57.2,57.2,29.99,ESE,117,0.0,0.0,100,0.00,,---,0.00,VWS V14.01,2013-05-10 10:20:00,
2013-05-10 06:25:00,57.2,57.2,29.99,ESE,117,0.0,0.0,100,0.00,,---,0.00,VWS V14.01,2013-05-10 10:25:00,
2013-05-10 06:30:00,57.2,57.2,29.99,ESE,117,0.0,0.0,100,0.00,,---,0.00,VWS V14.01,2013-05-10 10:30:00,
2013-05-10 06:35:00,57.2,57.2,29.99,ESE,117,0.0,0.0,100,0.00,,---,0.00,VWS V14.01,2013-05-10 10:35:00,
2013-05-10 06:40:00,57.2,57.2,29.99,ESE,117,0.0,0.0,100,0.00,,---,0.00,VWS V14.01,2013-05-10 10:40:00,
2013-05-10 06:45:00,57.2,57.2,29.99,ESE,117,0.0,0.0,100,0.00,,---,0.00,VWS V14.01,2013-05-10 10:45:00,
2013-05-10 06:50:00,57.3,57.3,30.00,ESE,117,0.0,0.0,100,0.00,,---,0.00,VWS V14.01,2013-05-10 10:50:00,
2013-05-10 06:55:00,57.6,57.6,30.00,ESE,117,0.0,0.0,100,0.00,,---,0.00,VWS V14.01,2013-05-10 10:55:00,
2013-05-10 07:00:00,57.5,57.5,30.00,ESE,117,0.0,0.0,100,0.00,,---,0.00,VWS V14.01,2013-05-10 11:00:00,
2013-05-10 07:05:00,57.5,57.5,30.00,ESE,117,0.0,0.0,100,0.00,,---,0.00,VWS V14.01,2013-05-10 11:05:00,
2013-05-10 07:10:00,57.5,57.5,30.00,ESE,117,0.0,0.0,100,0.00,,---,0.00,VWS V14.01,2013-05-10 11:10:00,
2013-05-10 07:15:00,58.4,58.4,30.00,ESE,117,0.0,0.0,100,0.00,,---,0.00,VWS V14.01,2013-05-10 11:15:00,
2013-05-10 07:20:00,58.9,58.9,30.00,ESE,117,0.0,0.0,100,0.00,,---,0.00,VWS V14.01,2013-05-10 11:20:00,
2013-05-10 07:25:00,59.5,59.5,30.00,ESE,117,0.0,0.0,100,0.00,,---,0.00,VWS V14.01,2013-05-10 11:25:00,
2013-05-10 07:30:00,60.4,60.4,30.00,ESE,117,0.0,0.0,100,0.00,,---,0.00,VWS V14.01,2013-05-10 11:30:00,
2013-05-10 07:35:00,61.2,61.2,30.00,ESE,117,0.0,0.0,100,0.00,,---,0.00,VWS V14.01,2013-05-10 11:35:00,
2013-05-10 07:40:00,61.6,61.6,30.00,ESE,117,0.0,0.0,100,0.00,,---,0.00,VWS V14.01,2013-05-10 11:40:00,
2013-05-10 07:45:00,62.3,62.3,30.00,ESE,117,0.0,0.0,100,0.00,,---,0.00,VWS V14.01,2013-05-10 11:45:00,
2013-05-10 07:50:00,62.9,62.9,30.00,ESE,117,0.0,0.0,100,0.00,,---,0.00,VWS V14.01,2013-05-10 11:50:00,
2013-05-10 07:55:00,63.5,63.5,30.00,ESE,117,0.0,0.0,100,0.00,,---,0.00,VWS V14.01,2013-05-10 11:55:00,
2013-05-10 08:00:00,64.0,64.0,30.00,ESE,117,0.0,0.0,100,0.00,,---,0.00,VWS V14.01,2013-05-10 12:00:00,
2013-05-10 08:05:00,64.8,64.8,30.00,ESE,117,0.0,0.0,100,0.00,,---,0.00,VWS V14.01,2013-05-10 12:05:00,
2013-05-10 08:10:00,65.6,65.6,30.00,ESE,117,0.0,0.0,100,0.00,,---,0.00,VWS V14.01,2013-05-10 12:10:00,
2013-05-10 08:15:00,66.8,66.8,30.00,ESE,117,0.0,0.0,100,0.00,,---,0.00,VWS V14.01,2013-05-10 12:15:00,
2013-05-10 08:20:00,67.6,67.6,30.00,ESE,117,0.0,0.0,100,0.00,,---,0.00,VWS V14.01,2013-05-10 12:20:00,
2013-05-10 08:25:00,68.4,68.4,30.00,ESE,117,0.0,0.0,100,0.00,,---,0.00,VWS V14.01,2013-05-10 12:25:00,
2013-05-10 08:30:00,69.1,69.1,30.00,ESE,117,0.0,0.0,100,0.00,,---,0.00,VWS V14.01,2013-05-10 12:30:00,
2013-05-10 08:35:00,69.9,69.6,30.00,ESE,117,0.0,0.0,99,0.00,,---,0.00,VWS V14.01,2013-05-10 12:35:00,
2013-05-10 08:40:00,70.9,70.0,30.00,ESE,117,0.0,0.0,97,0.00,,---,0.00,VWS V14.01,2013-05-10 12:40:00,
2013-05-10 08:45:00,71.8,70.6,30.00,ESE,117,0.0,0.0,96,0.00,,---,0.00,VWS V14.01,2013-05-10 12:45:00,
2013-05-10 08:50:00,72.7,70.6,30.00,ESE,113,0.0,0.0,93,0.00,,---,0.00,VWS V14.01,2013-05-10 12:50:00,
2013-05-10 08:55:00,73.3,70.8,30.00,ESE,111,0.0,0.0,92,0.00,,---,0.00,VWS V14.01,2013-05-10 12:55:00,
2013-05-10 09:00:00,74.4,71.6,30.00,ESE,119,0.0,0.0,91,0.00,,---,0.00,VWS V14.01,2013-05-10 13:00:00,
2013-05-10 09:05:00,74.9,71.1,30.00,ESE,120,0.0,0.0,88,0.00,,---,0.00,VWS V14.01,2013-05-10 13:05:00,
2013-05-10 09:10:00,75.3,70.8,30.00,SE,129,0.0,0.0,86,0.00,,---,0.00,VWS V14.01,2013-05-10 13:10:00,
2013-05-10 09:15:00,75.8,71.3,30.00,SE,137,0.0,0.0,86,0.00,,---,0.00,VWS V14.01,2013-05-10 13:15:00,
2013-05-10 09:20:00,76.1,70.9,30.00,SSE,157,0.0,0.0,84,0.00,,---,0.00,VWS V14.01,2013-05-10 13:20:00,
2013-05-10 09:25:00,76.7,71.2,30.00,SSE,150,0.0,0.0,83,0.00,,---,0.00,VWS V14.01,2013-05-10 13:25:00,
2013-05-10 09:30:00,77.2,71.6,30.00,SE,142,0.0,0.0,83,0.00,,---,0.00,VWS V14.01,2013-05-10 13:30:00,
2013-05-10 09:35:00,77.9,71.2,30.00,ESE,115,0.0,0.0,80,0.00,,---,0.00,VWS V14.01,2013-05-10 13:35:00,
2013-05-10 09:40:00,78.5,71.1,30.00,ESE,123,0.0,0.0,78,0.00,,---,0.00,VWS V14.01,2013-05-10 13:40:00,
2013-05-10 09:45:00,79.2,71.0,30.00,SE,142,0.0,0.0,76,0.00,,---,0.00,VWS V14.01,2013-05-10 13:45:00,
2013-05-10 09:50:00,79.6,70.2,30.00,SSE,154,0.0,0.0,73,0.00,,---,0.00,VWS V14.01,2013-05-10 13:50:00,
2013-05-10 09:55:00,79.6,68.5,30.00,SE,136,0.0,0.0,69,0.00,,---,0.00,VWS V14.01,2013-05-10 13:55:00,
2013-05-10 10:00:00,79.9,69.7,30.00,SE,131,0.0,0.0,71,0.00,,---,0.00,VWS V14.01,2013-05-10 14:00:00,
2013-05-10 10:05:00,80.3,68.3,30.00,SE,142,0.0,0.0,67,0.00,,---,0.00,VWS V14.01,2013-05-10 14:05:00,
2013-05-10 10:10:00,80.5,69.0,30.00,SE,145,0.0,0.0,68,0.00,,---,0.00,VWS V14.01,2013-05-10 14:10:00,
2013-05-10 10:15:00,80.9,68.0,30.00,SSE,148,0.0,0.0,65,0.00,,---,0.00,VWS V14.01,2013-05-10 14:15:00,
2013-05-10 10:20:00,81.4,68.5,30.00,SE,136,0.0,0.0,65,0.00,,---,0.00,VWS V14.01,2013-05-10 14:20:00,
2013-05-10 10:25:00,81.8,68.0,30.00,SSE,159,0.0,0.0,63,0.00,,---,0.00,VWS V14.01,2013-05-10 14:25:00,
2013-05-10 10:30:00,82.2,67.4,30.00,SE,142,0.0,0.0,61,0.00,,---,0.00,VWS V14.01,2013-05-10 14:30:00,
2013-05-10 10:35:00,83.0,68.2,30.00,SSE,151,0.0,0.0,61,0.00,,---,0.00,VWS V14.01,2013-05-10 14:35:00,
2013-05-10 10:40:00,82.8,65.5,30.00,SE,134,0.0,0.0,56,0.00,,---,0.00,VWS V14.01,2013-05-10 14:40:00,
2013-05-10 10:45:00,82.6,65.3,30.00,SE,141,0.0,0.0,56,0.00,,---,0.00,VWS V14.01,2013-05-10 14:45:00,
2013-05-10 10:50:00,83.0,66.2,29.99,SE,142,0.0,0.0,57,0.00,,---,0.00,VWS V14.01,2013-05-10 14:50:00,
2013-05-10 10:55:00,83.4,64.5,29.99,South,169,0.0,0.0,53,0.00,,---,0.00,VWS V14.01,2013-05-10 14:55:00,
2013-05-10 11:00:00,83.6,66.3,29.99,SSE,149,0.0,0.0,56,0.00,,---,0.00,VWS V14.01,2013-05-10 15:00:00,
2013-05-10 11:05:00,83.8,65.9,30.00,ESE,116,0.0,0.0,55,0.00,,---,0.00,VWS V14.01,2013-05-10 15:05:00,
2013-05-10 11:10:00,84.0,66.6,30.00,ESE,119,0.0,0.0,56,0.00,,---,0.00,VWS V14.01,2013-05-10 15:10:00,
2013-05-10 11:15:00,84.1,65.7,30.00,SE,138,0.0,0.0,54,0.00,,---,0.00,VWS V14.01,2013-05-10 15:15:00,
2013-05-10 11:20:00,83.8,65.9,30.00,SSE,147,0.0,0.0,55,0.00,,---,0.00,VWS V14.01,2013-05-10 15:20:00,
2013-05-10 11:25:00,84.3,64.2,30.00,SSE,159,0.0,0.0,51,0.00,,---,0.00,VWS V14.01,2013-05-10 15:25:00,
2013-05-10 11:30:00,84.9,65.9,30.00,South,188,0.0,0.0,53,0.00,,---,0.00,VWS V14.01,2013-05-10 15:30:00,
2013-05-10 11:35:00,84.9,63.0,30.00,South,172,0.0,0.0,48,0.00,,---,0.00,VWS V14.01,2013-05-10 15:35:00,
2013-05-10 11:40:00,85.1,63.8,30.00,SE,146,0.0,0.0,49,0.00,,---,0.00,VWS V14.01,2013-05-10 15:40:00,
2013-05-10 11:45:00,85.1,63.2,30.00,ESE,119,0.0,0.0,48,0.00,,---,0.00,VWS V14.01,2013-05-10 15:45:00,
2013-05-10 11:50:00,85.1,64.4,30.00,South,184,0.0,0.0,50,0.00,,---,0.00,VWS V14.01,2013-05-10 15:50:00,
2013-05-10 11:55:00,86.6,67.4,30.00,South,186,11.0,17.0,53,0.00,,---,0.00,VWS V14.01,2013-05-10 15:55:00,
2013-05-10 12:00:00,86.6,66.3,30.00,South,190,7.0,17.0,51,0.00,,---,0.00,VWS V14.01,2013-05-10 16:00:00,
2013-05-10 12:05:00,86.7,67.0,30.01,SSW,200,5.0,12.0,52,0.00,,---,0.00,VWS V14.01,2013-05-10 16:05:00,
2013-05-10 12:10:00,87.0,67.8,30.01,SSW,199,3.0,12.0,53,0.00,,---,0.00,VWS V14.01,2013-05-10 16:10:00,
2013-05-10 12:14:00,87.3,68.1,30.01,SSE,161,0.0,12.0,53,0.00,,---,0.00,VWS V14.01,2013-05-10 16:14:00,
2013-05-10 12:19:00,85.7,65.5,30.00,South,171,0.0,12.0,51,0.00,,---,0.00,VWS V14.01,2013-05-10 16:19:00,
2013-05-10 12:24:00,85.1,65.0,30.00,South,172,0.0,12.0,51,0.00,,---,0.00,VWS V14.01,2013-05-10 16:24:00,
2013-05-10 12:29:00,85.1,66.1,30.00,SE,127,0.0,12.0,53,0.00,,---,0.00,VWS V14.01,2013-05-10 16:29:00,
2013-05-10 12:30:00,84.9,64.8,30.00,South,185,0.0,0.0,51,0.00,,---,0.00,VWS V14.01,2013-05-10 16:30:00,
2013-05-10 12:34:00,86.1,67.0,30.01,SSW,198,0.0,0.0,53,0.00,,---,0.00,VWS V14.01,2013-05-10 16:34:00,
2013-05-10 12:39:00,87.4,66.5,30.01,South,188,0.0,0.0,50,0.00,,---,0.00,VWS V14.01,2013-05-10 16:39:00,
2013-05-10 12:44:00,86.7,65.3,30.01,SSE,168,0.0,0.0,49,0.00,,---,0.00,VWS V14.01,2013-05-10 16:44:00,
2013-05-10 12:49:00,87.0,65.6,30.00,SSW,209,0.0,0.0,49,0.00,,---,0.00,VWS V14.01,2013-05-10 16:49:00,
2013-05-10 12:54:00,85.9,65.1,30.00,SSE,147,0.0,0.0,50,0.00,,---,0.00,VWS V14.01,2013-05-10 16:54:00,
2013-05-10 12:59:00,86.3,66.1,30.00,SW,220,0.0,0.0,51,0.00,,---,0.00,VWS V14.01,2013-05-10 16:59:00,
2013-05-10 13:00:00,86.7,66.4,30.01,South,176,3.0,17.0,51,0.00,,---,0.00,VWS V14.01,2013-05-10 17:00:00,
2013-05-10 13:04:00,86.3,65.5,30.00,SSW,208,0.0,0.0,50,0.00,,---,0.00,VWS V14.01,2013-05-10 17:04:00,
2013-05-10 13:09:00,86.3,63.7,30.00,SSW,206,0.0,0.0,47,0.00,,---,0.00,VWS V14.01,2013-05-10 17:09:00,
2013-05-10 13:14:00,86.3,66.1,30.00,SSW,192,0.0,0.0,51,0.00,,---,0.00,VWS V14.01,2013-05-10 17:14:00,
2013-05-10 13:19:00,86.7,67.0,30.00,SSW,198,0.0,0.0,52,0.00,,---,0.00,VWS V14.01,2013-05-10 17:19:00,
2013-05-10 13:24:00,87.2,66.3,30.00,SW,219,0.0,0.0,50,0.00,,---,0.00,VWS V14.01,2013-05-10 17:24:00,
2013-05-10 13:29:00,87.0,65.6,30.00,SE,127,0.0,0.0,49,0.00,,---,0.00,VWS V14.01,2013-05-10 17:29:00,
2013-05-10 13:30:00,85.9,64.5,30.01,SSE,150,0.0,12.0,49,0.00,,---,0.00,VWS V14.01,2013-05-10 17:30:00,
2013-05-10 13:34:00,87.2,64.5,30.00,SW,223,0.0,0.0,47,0.00,,---,0.00,VWS V14.01,2013-05-10 17:34:00,
2013-05-10 13:39:00,86.3,64.9,30.00,SSW,213,0.0,0.0,49,0.00,,---,0.00,VWS V14.01,2013-05-10 17:39:00,
2013-05-10 13:44:00,87.2,65.7,30.00,SSE,165,0.0,0.0,49,0.00,,---,0.00,VWS V14.01,2013-05-10 17:44:00,
2013-05-10 13:49:00,87.8,63.8,29.99,South,182,0.0,0.0,45,0.00,,---,0.00,VWS V14.01,2013-05-10 17:49:00,
2013-05-10 13:54:00,88.0,64.7,29.99,South,172,0.0,0.0,46,0.00,,---,0.00,VWS V14.01,2013-05-10 17:54:00,
2013-05-10 13:59:00,88.2,65.4,29.99,SSE,155,0.0,0.0,47,0.00,,---,0.00,VWS V14.01,2013-05-10 17:59:00,
2013-05-10 14:00:00,86.1,65.3,30.00,SSW,213,0.0,0.0,50,0.00,,---,0.00,VWS V14.01,2013-05-10 18:00:00,
2013-05-10 14:04:00,87.8,65.1,29.98,SSE,159,0.0,0.0,47,0.00,,---,0.00,VWS V14.01,2013-05-10 18:04:00,
2013-05-10 14:09:00,88.2,65.4,29.98,SW,226,0.0,0.0,47,0.00,,---,0.00,VWS V14.01,2013-05-10 18:09:00,
2013-05-10 14:14:00,87.4,64.7,29.98,WSW,246,0.0,0.0,47,0.00,,---,0.00,VWS V14.01,2013-05-10 18:14:00,
2013-05-10 14:19:00,87.6,65.5,29.98,WSW,257,0.0,0.0,48,0.00,,---,0.00,VWS V14.01,2013-05-10 18:19:00,
2013-05-10 14:24:00,88.0,66.5,29.98,WSW,255,0.0,0.0,49,0.00,,---,0.00,VWS V14.01,2013-05-10 18:24:00,
2013-05-10 14:29:00,88.6,64.6,29.98,South,184,0.0,0.0,45,0.00,,---,0.00,VWS V14.01,2013-05-10 18:29:00,
2013-05-10 14:30:00,87.4,64.7,30.00,SW,220,0.0,0.0,47,0.00,,---,0.00,VWS V14.01,2013-05-10 18:30:00,
2013-05-10 14:34:00,88.6,67.6,29.98,SSW,199,0.0,0.0,50,0.00,,---,0.00,VWS V14.01,2013-05-10 18:34:00,
2013-05-10 14:39:00,88.2,66.1,29.98,SW,218,0.0,0.0,48,0.00,,---,0.00,VWS V14.01,2013-05-10 18:39:00,
2013-05-10 14:44:00,87.8,66.3,29.98,South,185,0.0,0.0,49,0.00,,---,0.00,VWS V14.01,2013-05-10 18:44:00,
2013-05-10 14:49:00,87.2,66.3,29.97,South,187,0.0,0.0,50,0.00,,---,0.00,VWS V14.01,2013-05-10 18:49:00,
2013-05-10 14:54:00,87.0,66.7,29.97,SSW,203,0.0,0.0,51,0.00,,---,0.00,VWS V14.01,2013-05-10 18:54:00,
2013-05-10 14:59:00,88.4,65.6,29.97,SSE,164,0.0,0.0,47,0.00,,---,0.00,VWS V14.01,2013-05-10 18:59:00,
2013-05-10 15:00:00,87.6,64.9,29.98,SSE,148,0.0,0.0,47,0.00,,---,0.00,VWS V14.01,2013-05-10 19:00:00,
2013-05-10 15:04:00,88.6,65.8,29.96,SSW,204,0.0,0.0,47,0.00,,---,0.00,VWS V14.01,2013-05-10 19:04:00,
2013-05-10 15:09:00,88.4,66.2,29.96,SW,220,0.0,0.0,48,0.00,,---,0.00,VWS V14.01,2013-05-10 19:09:00,
2013-05-10 15:14:00,88.8,66.0,29.96,SW,215,0.0,0.0,47,0.00,,---,0.00,VWS V14.01,2013-05-10 19:14:00,
2013-05-10 15:19:00,88.8,66.6,29.96,SSE,161,0.0,0.0,48,0.00,,---,0.00,VWS V14.01,2013-05-10 19:19:00,
2013-05-10 15:24:00,88.0,66.5,29.96,WSW,238,0.0,0.0,49,0.00,,---,0.00,VWS V14.01,2013-05-10 19:24:00,
2013-05-10 15:29:00,87.6,67.2,29.96,WSW,238,0.0,0.0,51,0.00,,---,0.00,VWS V14.01,2013-05-10 19:29:00,
2013-05-10 15:30:00,88.4,65.0,29.98,SSW,205,0.0,0.0,46,0.00,,---,0.00,VWS V14.01,2013-05-10 19:30:00,
2013-05-10 15:34:00,87.4,65.9,29.96,SW,229,0.0,0.0,49,0.00,,---,0.00,VWS V14.01,2013-05-10 19:34:00,
2013-05-10 15:39:00,87.6,66.1,29.96,SW,236,0.0,0.0,49,0.00,,---,0.00,VWS V14.01,2013-05-10 19:39:00,
2013-05-10 15:44:00,88.4,66.8,29.96,SSW,211,0.0,0.0,49,0.00,,---,0.00,VWS V14.01,2013-05-10 19:44:00,
2013-05-10 15:49:00,89.0,67.4,29.95,WSW,247,0.0,0.0,49,0.00,,---,0.00,VWS V14.01,2013-05-10 19:49:00,
2013-05-10 15:54:00,88.6,66.4,29.95,WSW,257,0.0,0.0,48,0.00,,---,0.00,VWS V14.01,2013-05-10 19:54:00,
2013-05-10 15:59:00,88.4,66.2,29.95,WSW,256,0.0,0.0,48,0.00,,---,0.00,VWS V14.01,2013-05-10 19:59:00,
2013-05-10 16:00:00,88.8,65.4,29.96,SSW,213,0.0,0.0,46,0.00,,---,0.00,VWS V14.01,2013-05-10 20:00:00,
2013-05-10 16:04:00,88.8,65.4,29.94,WSW,250,0.0,0.0,46,0.00,,---,0.00,VWS V14.01,2013-05-10 20:04:00,
2013-05-10 16:09:00,89.3,65.8,29.94,WSW,249,0.0,0.0,46,0.00,,---,0.00,VWS V14.01,2013-05-10 20:09:00,
2013-05-10 16:14:00,89.3,67.1,29.94,WSW,252,0.0,0.0,48,0.00,,---,0.00,VWS V14.01,2013-05-10 20:14:00,
2013-05-10 16:19:00,89.3,63.2,29.93,SW,223,0.0,0.0,42,0.00,,---,0.00,VWS V14.01,2013-05-10 20:19:00,
2013-05-10 16:24:00,89.5,66.6,29.93,SW,235,0.0,0.0,47,0.00,,---,0.00,VWS V14.01,2013-05-10 20:24:00,
2013-05-10 16:29:00,89.5,66.0,29.93,SW,226,0.0,0.0,46,0.00,,---,0.00,VWS V14.01,2013-05-10 20:29:00,
2013-05-10 16:30:00,87.4,65.9,29.96,SW,226,0.0,0.0,49,0.00,,---,0.00,VWS V14.01,2013-05-10 20:30:00,
2013-05-10 16:34:00,89.3,65.8,29.93,West,262,0.0,0.0,46,0.00,,---,0.00,VWS V14.01,2013-05-10 20:34:00,
2013-05-10 16:39:00,89.3,65.8,29.93,SW,227,0.0,0.0,46,0.00,,---,0.00,VWS V14.01,2013-05-10 20:39:00,
2013-05-10 16:44:00,89.0,66.2,29.93,WSW,254,0.0,0.0,47,0.00,,---,0.00,VWS V14.01,2013-05-10 20:44:00,
2013-05-10 16:49:00,88.8,64.7,29.93,WSW,245,0.0,0.0,45,0.00,,---,0.00,VWS V14.01,2013-05-10 20:49:00,
2013-05-10 16:54:00,89.0,65.6,29.93,SSW,205,0.0,0.0,46,0.00,,---,0.00,VWS V14.01,2013-05-10 20:54:00,
2013-05-10 16:59:00,88.8,65.4,29.93,SW,219,0.0,0.0,46,0.00,,---,0.00,VWS V14.01,2013-05-10 20:59:00,
2013-05-10 17:00:00,88.6,66.4,29.94,WSW,239,0.0,0.0,48,0.00,,---,0.00,VWS V14.01,2013-05-10 21:00:00,
2013-05-10 17:04:00,88.2,65.4,29.93,SW,228,0.0,0.0,47,0.00,,---,0.00,VWS V14.01,2013-05-10 21:04:00,
2013-05-10 17:09:00,88.0,66.5,29.93,WSW,252,0.0,0.0,49,0.00,,---,0.00,VWS V14.01,2013-05-10 21:09:00,
2013-05-10 17:14:00,87.6,67.8,29.93,WNW,302,0.0,0.0,52,0.00,,---,0.00,VWS V14.01,2013-05-10 21:14:00,
2013-05-10 17:19:00,87.8,67.4,29.93,NW,311,0.0,0.0,51,0.00,,---,0.00,VWS V14.01,2013-05-10 21:19:00,
2013-05-10 17:24:00,87.8,68.6,29.93,WSW,257,0.0,0.0,53,0.00,,---,0.00,VWS V14.01,2013-05-10 21:24:00,
2013-05-10 17:29:00,88.2,68.4,29.93,WSW,245,0.0,0.0,52,0.00,,---,0.00,VWS V14.01,2013-05-10 21:29:00,
2013-05-10 17:30:00,89.3,65.2,29.93,WSW,247,0.0,0.0,45,0.00,,---,0.00,VWS V14.01,2013-05-10 21:30:00,
2013-05-10 17:34:00,88.0,67.1,29.93,West,279,0.0,0.0,50,0.00,,---,0.00,VWS V14.01,2013-05-10 21:34:00,
2013-05-10 17:39:00,87.2,66.9,29.93,West,267,0.0,0.0,51,0.00,,---,0.00,VWS V14.01,2013-05-10 21:39:00,
2013-05-10 17:44:00,87.2,67.4,29.93,WNW,302,0.0,0.0,52,0.00,,---,0.00,VWS V14.01,2013-05-10 21:44:00,
2013-05-10 17:49:00,86.7,66.4,29.93,West,277,0.0,0.0,51,0.00,,---,0.00,VWS V14.01,2013-05-10 21:49:00,
2013-05-10 17:54:00,86.1,65.9,29.93,WNW,283,0.0,0.0,51,0.00,,---,0.00,VWS V14.01,2013-05-10 21:54:00,
2013-05-10 17:58:00,86.1,65.9,29.93,WNW,287,0.0,0.0,51,0.00,,---,0.00,VWS V14.01,2013-05-10 21:58:00,
2013-05-10 18:00:00,88.4,65.6,29.93,SW,220,0.0,0.0,47,0.00,,---,0.00,VWS V14.01,2013-05-10 22:00:00,
2013-05-10 18:03:00,85.9,66.2,29.92,WNW,298,0.0,0.0,52,0.00,,---,0.00,VWS V14.01,2013-05-10 22:03:00,
2013-05-10 18:08:00,85.7,67.2,29.92,West,275,0.0,0.0,54,0.00,,---,0.00,VWS V14.01,2013-05-10 22:08:00,
2013-05-10 18:13:00,85.5,66.4,29.92,West,260,0.0,0.0,53,0.00,,---,0.00,VWS V14.01,2013-05-10 22:13:00,
2013-05-10 18:18:00,85.3,65.7,29.92,West,271,0.0,0.0,52,0.00,,---,0.00,VWS V14.01,2013-05-10 22:18:00,
2013-05-10 18:23:00,84.9,65.9,29.92,West,269,0.0,0.0,53,0.00,,---,0.00,VWS V14.01,2013-05-10 22:23:00,
2013-05-10 18:28:00,84.9,65.9,29.92,WNW,301,0.0,0.0,53,0.00,,---,0.00,VWS V14.01,2013-05-10 22:28:00,
2013-05-10 18:30:00,88.2,66.6,29.93,WSW,258,0.0,0.0,49,0.00,,---,0.00,VWS V14.01,2013-05-10 22:30:00,
2013-05-10 18:33:00,84.7,65.7,29.92,West,267,0.0,0.0,53,0.00,,---,0.00,VWS V14.01,2013-05-10 22:33:00,
2013-05-10 18:38:00,84.7,66.2,29.92,West,278,0.0,0.0,54,0.00,,---,0.00,VWS V14.01,2013-05-10 22:38:00,
2013-05-10 18:43:00,84.5,66.6,29.92,West,276,0.0,0.0,55,0.00,,---,0.00,VWS V14.01,2013-05-10 22:43:00,
2013-05-10 18:48:00,84.3,66.4,29.92,NW,306,0.0,0.0,55,0.00,,---,0.00,VWS V14.01,2013-05-10 22:48:00,
2013-05-10 18:53:00,84.0,66.6,29.92,WNW,293,0.0,0.0,56,0.00,,---,0.00,VWS V14.01,2013-05-10 22:53:00,
2013-05-10 18:58:00,83.6,66.8,29.92,WNW,286,0.0,0.0,57,0.00,,---,0.00,VWS V14.01,2013-05-10 22:58:00,
2013-05-10 19:00:00,86.1,66.4,29.92,WNW,301,0.0,0.0,52,0.00,,---,0.00,VWS V14.01,2013-05-10 23:00:00,
2013-05-10 19:03:00,83.4,67.1,29.92,WNW,291,0.0,0.0,58,0.00,,---,0.00,VWS V14.01,2013-05-10 23:03:00,
2013-05-10 19:08:00,83.2,66.9,29.92,WNW,291,0.0,0.0,58,0.00,,---,0.00,VWS V14.01,2013-05-10 23:08:00,
2013-05-10 19:13:00,83.0,67.2,29.92,WNW,296,0.0,0.0,59,0.00,,---,0.00,VWS V14.01,2013-05-10 23:13:00,
2013-05-10 19:18:00,82.8,67.0,29.92,NW,307,0.0,0.0,59,0.00,,---,0.00,VWS V14.01,2013-05-10 23:18:00,
2013-05-10 19:23:00,82.6,67.3,29.92,NW,307,0.0,0.0,60,0.00,,---,0.00,VWS V14.01,2013-05-10 23:23:00,
2013-05-10 19:28:00,82.4,67.1,29.92,NW,308,0.0,0.0,60,0.00,,---,0.00,VWS V14.01,2013-05-10 23:28:00,
2013-05-10 19:30:00,84.7,66.2,29.92,West,262,0.0,0.0,54,0.00,,---,0.00,VWS V14.01,2013-05-10 23:30:00,
2013-05-10 19:33:00,82.2,67.4,29.92,NW,311,0.0,0.0,61,0.00,,---,0.00,VWS V14.01,2013-05-10 23:33:00,
2013-05-10 19:38:00,82.0,67.2,29.92,WNW,303,0.0,0.0,61,0.00,,---,0.00,VWS V14.01,2013-05-10 23:38:00,
2013-05-10 19:43:00,81.8,67.1,29.92,NW,304,0.0,0.0,61,0.00,,---,0.00,VWS V14.01,2013-05-10 23:43:00,
2013-05-10 19:48:00,81.8,67.1,29.93,WNW,303,0.0,0.0,61,0.00,,---,0.00,VWS V14.01,2013-05-10 23:48:00,
2013-05-10 19:53:00,81.6,66.9,29.93,WNW,302,0.0,0.0,61,0.00,,---,0.00,VWS V14.01,2013-05-10 23:53:00,
2013-05-10 19:58:00,81.4,66.7,29.93,WNW,302,0.0,0.0,61,0.00,,---,0.00,VWS V14.01,2013-05-10 23:58:00,
2013-05-10 20:00:00,83.4,67.1,29.92,WNW,291,0.0,0.0,58,0.00,,---,0.00,VWS V14.01,2013-05-11 00:00:00,
2013-05-10 20:03:00,81.2,66.5,29.93,WNW,302,0.0,0.0,61,0.00,,---,0.00,VWS V14.01,2013-05-11 00:03:00,
2013-05-10 20:08:00,81.2,66.9,29.93,WNW,302,0.0,0.0,62,0.00,,---,0.00,VWS V14.01,2013-05-11 00:08:00,
2013-05-10 20:13:00,80.9,66.7,29.93,WNW,302,0.0,0.0,62,0.00,,---,0.00,VWS V14.01,2013-05-11 00:13:00,
2013-05-10 20:17:00,80.7,66.9,29.93,WNW,302,0.0,0.0,63,0.00,,---,0.00,VWS V14.01,2013-05-11 00:17:00,
2013-05-10 20:22:00,80.3,67.5,29.93,WNW,302,0.0,0.0,65,0.00,,---,0.00,VWS V14.01,2013-05-11 00:22:00,
2013-05-10 20:27:00,79.9,68.0,29.93,WNW,302,0.0,0.0,67,0.00,,---,0.00,VWS V14.01,2013-05-11 00:27:00,
2013-05-10 20:30:00,82.2,67.4,29.92,NW,311,0.0,0.0,61,0.00,,---,0.00,VWS V14.01,2013-05-11 00:30:00,
2013-05-10 20:32:00,79.6,68.5,29.94,WNW,302,0.0,0.0,69,0.00,,---,0.00,VWS V14.01,2013-05-11 00:32:00,
2013-05-10 20:37:00,79.6,69.0,29.94,WNW,302,0.0,0.0,70,0.00,,---,0.00,VWS V14.01,2013-05-11 00:37:00,
2013-05-10 20:42:00,79.6,68.5,29.94,WNW,302,0.0,0.0,69,0.00,,---,0.00,VWS V14.01,2013-05-11 00:42:00,
2013-05-10 20:47:00,79.6,69.0,29.95,WNW,302,0.0,0.0,70,0.00,,---,0.00,VWS V14.01,2013-05-11 00:47:00,
2013-05-10 20:52:00,79.6,69.4,29.95,WNW,302,0.0,0.0,71,0.00,,---,0.00,VWS V14.01,2013-05-11 00:52:00,
2013-05-10 20:57:00,79.6,70.2,29.95,WNW,302,0.0,0.0,73,0.00,,---,0.00,VWS V14.01,2013-05-11 00:57:00,
2013-05-10 21:00:00,81.2,66.5,29.93,WNW,302,0.0,0.0,61,0.00,,---,0.00,VWS V14.01,2013-05-11 01:00:00,
2013-05-10 21:02:00,79.2,70.2,29.95,NW,304,0.0,0.0,74,0.00,,---,0.00,VWS V14.01,2013-05-11 01:02:00,
2013-05-10 21:07:00,78.5,70.3,29.95,NW,318,0.0,0.0,76,0.00,,---,0.00,VWS V14.01,2013-05-11 01:07:00,
2013-05-10 21:12:00,78.1,70.3,29.95,NW,319,0.0,0.0,77,0.00,,---,0.00,VWS V14.01,2013-05-11 01:12:00,
2013-05-10 21:17:00,77.7,70.3,29.95,NW,319,0.0,0.0,78,0.00,,---,0.00,VWS V14.01,2013-05-11 01:17:00,
2013-05-10 21:22:00,77.4,70.8,29.95,NW,321,0.0,0.0,80,0.00,,---,0.00,VWS V14.01,2013-05-11 01:22:00,
2013-05-10 21:27:00,77.0,70.7,29.95,NW,324,0.0,0.0,81,0.00,,---,0.00,VWS V14.01,2013-05-11 01:27:00,
2013-05-10 21:30:00,79.6,68.5,29.94,WNW,302,0.0,0.0,69,0.00,,---,0.00,VWS V14.01,2013-05-11 01:30:00,
2013-05-10 21:32:00,76.7,70.8,29.95,NW,324,0.0,0.0,82,0.00,,---,0.00,VWS V14.01,2013-05-11 01:32:00,
2013-05-10 21:37:00,76.5,70.6,29.95,NW,324,0.0,0.0,82,0.00,,---,0.00,VWS V14.01,2013-05-11 01:37:00,
2013-05-10 21:42:00,76.5,71.0,29.95,NW,324,0.0,0.0,83,0.00,,---,0.00,VWS V14.01,2013-05-11 01:42:00,
2013-05-10 21:47:00,76.1,70.9,29.95,NW,324,0.0,0.0,84,0.00,,---,0.00,VWS V14.01,2013-05-11 01:47:00,
2013-05-10 21:52:00,76.0,71.2,29.95,NW,324,0.0,0.0,85,0.00,,---,0.00,VWS V14.01,2013-05-11 01:52:00,
2013-05-10 21:57:00,75.6,70.8,29.95,NW,324,0.0,0.0,85,0.00,,---,0.00,VWS V14.01,2013-05-11 01:57:00,
2013-05-10 22:00:00,79.0,70.0,29.95,NW,306,0.0,0.0,74,0.00,,---,0.00,VWS V14.01,2013-05-11 02:00:00,
2013-05-10 22:02:00,75.6,71.1,29.94,NW,324,0.0,0.0,86,0.00,,---,0.00,VWS V14.01,2013-05-11 02:02:00,
2013-05-10 22:07:00,75.4,70.9,29.94,NW,324,0.0,0.0,86,0.00,,---,0.00,VWS V14.01,2013-05-11 02:07:00,
2013-05-10 22:12:00,75.3,70.8,29.94,NW,324,0.0,0.0,86,0.00,,---,0.00,VWS V14.01,2013-05-11 02:12:00,
2013-05-10 22:17:00,75.3,71.2,29.94,NW,324,0.0,0.0,87,0.00,,---,0.00,VWS V14.01,2013-05-11 02:17:00,
2013-05-10 22:22:00,75.1,71.0,29.94,NW,324,0.0,0.0,87,0.00,,---,0.00,VWS V14.01,2013-05-11 02:22:00,
2013-05-10 22:27:00,74.9,70.8,29.94,NW,324,0.0,0.0,87,0.00,,---,0.00,VWS V14.01,2013-05-11 02:27:00,
2013-05-10 22:30:00,76.7,70.8,29.95,NW,324,0.0,0.0,82,0.00,,---,0.00,VWS V14.01,2013-05-11 02:30:00,
2013-05-10 22:32:00,74.7,70.6,29.95,NW,324,0.0,0.0,87,0.00,,---,0.00,VWS V14.01,2013-05-11 02:32:00,
2013-05-10 22:37:00,74.4,70.3,29.95,NW,324,0.0,0.0,87,0.00,,---,0.00,VWS V14.01,2013-05-11 02:37:00,
2013-05-10 22:42:00,73.9,70.1,29.95,NW,324,0.0,0.0,88,0.00,,---,0.00,VWS V14.01,2013-05-11 02:42:00,
2013-05-10 22:47:00,73.3,69.9,29.95,NW,324,0.0,0.0,89,0.00,,---,0.00,VWS V14.01,2013-05-11 02:47:00,
2013-05-10 22:52:00,72.5,69.4,29.95,NW,324,0.0,0.0,90,0.00,,---,0.00,VWS V14.01,2013-05-11 02:52:00,
2013-05-10 22:57:00,72.0,69.6,29.95,NW,324,0.0,0.0,92,0.00,,---,0.00,VWS V14.01,2013-05-11 02:57:00,
2013-05-10 23:00:00,75.6,71.1,29.94,NW,324,0.0,0.0,86,0.00,,---,0.00,VWS V14.01,2013-05-11 03:00:00,
2013-05-10 23:02:00,71.5,69.4,29.95,NW,324,0.0,0.0,93,0.00,,---,0.00,VWS V14.01,2013-05-11 03:02:00,
2013-05-10 23:07:00,71.3,69.8,29.95,NW,324,0.0,0.0,95,0.00,,---,0.00,VWS V14.01,2013-05-11 03:07:00,
2013-05-10 23:12:00,71.3,69.8,29.95,NW,324,0.0,0.0,95,0.00,,---,0.00,VWS V14.01,2013-05-11 03:12:00,
2013-05-10 23:17:00,71.1,69.6,29.96,NW,324,0.0,0.0,95,0.00,,---,0.00,VWS V14.01,2013-05-11 03:17:00,
2013-05-10 23:22:00,70.8,69.6,29.96,NW,324,0.0,0.0,96,0.00,,---,0.00,VWS V14.01,2013-05-11 03:22:00,
2013-05-10 23:27:00,70.6,69.7,29.96,NW,324,0.0,0.0,97,0.00,,---,0.00,VWS V14.01,2013-05-11 03:27:00,
2013-05-10 23:30:00,74.7,70.6,29.95,NW,324,0.0,0.0,87,0.00,,---,0.00,VWS V14.01,2013-05-11 03:30:00,
2013-05-10 23:32:00,70.1,69.2,29.96,NW,324,0.0,0.0,97,0.00,,---,0.00,VWS V14.01,2013-05-11 03:32:00,
2013-05-10 23:37:00,69.8,69.2,29.96,NW,324,0.0,0.0,98,0.00,,---,0.00,VWS V14.01,2013-05-11 03:37:00,
2013-05-10 23:42:00,69.8,69.2,29.96,NW,324,0.0,0.0,98,0.00,,---,0.00,VWS V14.01,2013-05-11 03:42:00,
2013-05-10 23:47:00,69.8,69.5,29.96,NW,324,0.0,0.0,99,0.00,,---,0.00,VWS V14.01,2013-05-11 03:47:00,
2013-05-10 23:52:00,69.6,69.3,29.96,NW,324,0.0,0.0,99,0.00,,---,0.00,VWS V14.01,2013-05-11 03:52:00,
2013-05-10 23:57:00,69.4,69.1,29.96,NW,324,0.0,0.0,99,0.00,,---,0.00,VWS V14.01,2013-05-11 03:57:00,